createdAt,value
2022-09-04T00:00:17.792Z,63.13
2022-09-04T00:03:14.253Z,63.38
2022-09-04T00:14:13.594Z,64.03
2022-09-04T00:17:06.171Z,64.06
2022-09-04T00:19:55.868Z,64.28
2022-09-04T00:30:43.298Z,63.69
2022-09-04T00:33:51.495Z,63.35
2022-09-04T00:36:25.073Z,63.41
2022-09-04T00:39:00.774Z,63.53
2022-09-04T00:46:22.593Z,63.21
2022-09-04T00:49:33.675Z,63.17
2022-09-04T00:52:29.578Z,63.59
2022-09-04T00:59:30.717Z,63.74
2022-09-04T01:02:27.549Z,63.85
2022-09-04T01:05:07.513Z,64.09
2022-09-04T01:08:12.247Z,64.06
2022-09-04T01:11:06.886Z,63.97
2022-09-04T01:13:47.217Z,63.83
2022-09-04T01:20:56.461Z,63.73
2022-09-04T01:32:10.048Z,64.00
2022-09-04T01:35:08.973Z,63.63
2022-09-04T01:38:09.794Z,63.35
2022-09-04T01:44:40.312Z,64.18
2022-09-04T01:52:17.348Z,64.72
2022-09-04T01:55:03.937Z,64.50
2022-09-04T01:58:11.615Z,64.55
2022-09-04T02:05:14.115Z,64.01
2022-09-04T02:16:31.418Z,64.27
2022-09-04T02:19:29.443Z,64.11
2022-09-04T02:26:20.433Z,64.55
2022-09-04T02:33:25.971Z,64.82
2022-09-04T02:40:16.718Z,64.50
2022-09-04T02:43:32.896Z,64.26
2022-09-04T02:54:33.043Z,64.51
2022-09-04T02:57:31.039Z,64.61
2022-09-04T03:04:13.926Z,64.08
2022-09-04T03:06:49.076Z,63.65
2022-09-04T03:09:27.472Z,63.68
2022-09-04T03:12:21.809Z,63.75
2022-09-04T03:15:09.371Z,64.11
2022-09-04T03:17:55.874Z,63.94
2022-09-04T03:25:01.032Z,64.45
2022-09-04T03:27:32.624Z,64.23
2022-09-04T03:30:03.275Z,64.02
2022-09-04T03:32:43.717Z,63.89
2022-09-04T03:35:35.750Z,63.92
2022-09-04T03:38:17.878Z,64.08
2022-09-04T03:40:53.887Z,64.26
2022-09-04T03:44:23.979Z,64.20
2022-09-04T03:47:01.734Z,64.24
2022-09-04T03:49:57.449Z,64.13
2022-09-04T03:52:42.444Z,64.09
2022-09-04T04:00:04.140Z,63.49
2022-09-04T04:03:20.897Z,63.44
2022-09-04T04:06:11.655Z,63.62
2022-09-04T04:13:26.204Z,63.82
2022-09-04T04:16:24.820Z,63.84
2022-09-04T04:19:12.672Z,63.86
2022-09-04T04:26:29.255Z,63.66
2022-09-04T04:29:53.915Z,63.49
2022-09-04T04:33:02.671Z,63.54
2022-09-04T04:39:52.963Z,63.16
2022-09-04T04:42:29.030Z,63.19
2022-09-04T04:45:29.820Z,63.03
2022-09-04T04:52:19.230Z,62.77
2022-09-04T04:55:15.050Z,63.20
2022-09-04T04:58:42.573Z,63.15
2022-09-04T05:01:12.957Z,63.00
2022-09-04T05:04:01.944Z,63.11
2022-09-04T05:06:51.008Z,63.08
2022-09-04T05:09:23.857Z,63.13
2022-09-04T05:11:53.870Z,63.16
2022-09-04T05:18:34.576Z,63.30
2022-09-04T05:21:31.039Z,63.47
2022-09-04T05:24:22.098Z,63.55
2022-09-04T05:26:59.725Z,63.90
2022-09-04T05:33:51.535Z,64.64
2022-09-04T05:36:29.981Z,64.77
2022-09-04T05:39:28.779Z,64.83
2022-09-04T05:42:06.742Z,64.83
2022-09-04T05:45:16.192Z,64.66
2022-09-04T05:48:04.529Z,64.67
2022-09-04T05:50:31.661Z,64.47
2022-09-04T05:53:26.564Z,64.52
2022-09-04T05:56:23.222Z,64.68
2022-09-04T05:59:16.105Z,64.64
2022-09-04T06:02:26.454Z,64.44
2022-09-04T06:05:24.582Z,64.35
2022-09-04T06:08:26.456Z,64.33
2022-09-04T06:11:32.166Z,64.31
2022-09-04T06:14:35.512Z,63.84
2022-09-04T06:17:36.241Z,64.11
2022-09-04T06:20:33.709Z,63.95
2022-09-04T06:23:37.753Z,63.39
2022-09-04T06:27:00.362Z,63.69
2022-09-04T06:30:11.972Z,63.66
2022-09-04T06:33:12.127Z,63.30
2022-09-04T06:36:18.310Z,63.26
2022-09-04T06:39:20.879Z,63.19
2022-09-04T06:42:01.051Z,62.57
2022-09-04T06:45:05.149Z,62.08
2022-09-04T06:48:09.767Z,61.56
2022-09-04T06:51:00.219Z,61.50
2022-09-04T06:53:50.449Z,60.76
2022-09-04T06:57:07.983Z,60.99
2022-09-04T07:00:20.416Z,59.36
2022-09-04T07:03:18.067Z,58.81
2022-09-04T07:06:03.507Z,59.07
2022-09-04T07:08:42.705Z,59.28
2022-09-04T07:11:54.578Z,59.76
2022-09-04T07:14:42.439Z,60.25
2022-09-04T07:17:46.800Z,61.03
2022-09-04T07:20:41.298Z,62.01
2022-09-04T07:23:23.608Z,61.83
2022-09-04T07:26:15.667Z,61.71
2022-09-04T07:29:26.248Z,61.74
2022-09-04T07:32:11.800Z,61.39
2022-09-04T07:35:13.220Z,61.23
2022-09-04T07:38:03.408Z,61.23
2022-09-04T07:40:42.385Z,61.11
2022-09-04T07:43:50.245Z,61.08
2022-09-04T07:46:55.211Z,59.88
2022-09-04T07:49:37.318Z,59.71
2022-09-04T07:56:32.104Z,60.72
2022-09-04T07:59:23.612Z,60.55
2022-09-04T08:06:21.940Z,59.81
2022-09-04T08:09:25.295Z,58.87
2022-09-04T08:12:26.103Z,58.79
2022-09-04T08:15:42.259Z,59.06
2022-09-04T08:18:25.238Z,59.74
2022-09-04T08:21:15.035Z,59.52
2022-09-04T08:23:57.966Z,59.34
2022-09-04T08:26:58.996Z,58.77
2022-09-04T08:29:53.636Z,58.09
2022-09-04T08:32:48.372Z,58.08
2022-09-04T08:35:37.517Z,57.91
2022-09-04T08:38:35.667Z,58.01
2022-09-04T08:41:51.612Z,57.95
2022-09-04T08:44:49.386Z,58.74
2022-09-04T08:48:00.286Z,58.50
2022-09-04T08:51:38.618Z,58.62
2022-09-04T08:54:23.998Z,58.82
2022-09-04T08:57:48.444Z,58.71
2022-09-04T09:01:03.517Z,58.66
2022-09-04T09:04:01.935Z,58.34
2022-09-04T09:06:50.533Z,58.07
2022-09-04T09:10:02.952Z,57.72
2022-09-04T09:13:24.679Z,57.66
2022-09-04T09:16:13.661Z,57.57
2022-09-04T09:19:02.818Z,57.85
2022-09-04T09:22:02.684Z,57.75
2022-09-04T09:24:52.376Z,57.15
2022-09-04T09:28:09.027Z,58.00
2022-09-04T09:31:25.529Z,58.50
2022-09-04T09:34:54.470Z,58.88
2022-09-04T09:37:48.005Z,58.88
2022-09-04T09:40:48.895Z,59.23
2022-09-04T09:44:12.282Z,59.33
2022-09-04T09:46:58.400Z,58.37
2022-09-04T09:49:50.184Z,57.92
2022-09-04T09:53:18.766Z,57.03
2022-09-04T09:56:24.172Z,57.30
2022-09-04T09:59:31.149Z,57.24
2022-09-04T10:02:35.259Z,56.99
2022-09-04T10:05:46.081Z,54.74
2022-09-04T10:08:58.267Z,55.09
2022-09-04T10:12:15.138Z,54.93
2022-09-04T10:14:51.299Z,55.21
2022-09-04T10:17:54.741Z,55.21
2022-09-04T10:21:18.262Z,54.26
2022-09-04T10:24:17.382Z,54.84
2022-09-04T10:27:43.961Z,54.50
2022-09-04T10:34:40.155Z,53.79
2022-09-04T10:38:02.388Z,52.95
2022-09-04T10:41:00.167Z,52.26
2022-09-04T10:43:53.135Z,51.53
2022-09-04T10:46:42.244Z,50.28
2022-09-04T10:49:12.810Z,48.49
2022-09-04T10:52:02.138Z,45.69
2022-09-04T10:55:01.297Z,44.15
2022-09-04T10:58:00.482Z,42.10
2022-09-04T11:00:42.053Z,39.77
2022-09-04T11:03:41.219Z,38.53
2022-09-04T11:06:20.097Z,36.87
2022-09-04T11:09:42.618Z,38.39
2022-09-04T11:12:47.842Z,38.33
2022-09-04T11:15:39.728Z,40.48
2022-09-04T11:18:28.580Z,40.97
2022-09-04T11:25:37.613Z,39.77
2022-09-04T11:28:42.282Z,39.90
2022-09-04T11:31:21.353Z,39.99
2022-09-04T11:34:34.199Z,39.26
2022-09-04T11:38:07.575Z,37.91
2022-09-04T11:40:49.590Z,37.27
2022-09-04T11:43:31.682Z,35.97
2022-09-04T11:46:35.895Z,35.14
2022-09-04T11:49:51.071Z,36.95
2022-09-04T11:53:01.103Z,38.38
2022-09-04T12:00:24.844Z,38.06
2022-09-04T12:03:49.236Z,37.40
2022-09-04T12:06:37.908Z,37.63
2022-09-04T12:09:35.700Z,38.43
2022-09-04T12:12:53.546Z,33.71
2022-09-04T12:16:08.642Z,35.76
2022-09-04T12:19:14.175Z,32.09
2022-09-04T12:22:18.226Z,32.84
2022-09-04T12:29:52.913Z,31.21
2022-09-04T12:33:23.910Z,30.68
2022-09-04T12:40:47.532Z,29.19
2022-09-04T12:43:37.514Z,29.88
2022-09-04T12:46:33.804Z,29.48
2022-09-04T12:53:28.201Z,31.45
2022-09-04T12:56:11.624Z,31.14
2022-09-04T12:59:32.239Z,29.24
2022-09-04T13:02:39.633Z,29.25
2022-09-04T13:09:11.627Z,29.14
2022-09-04T13:16:04.122Z,28.43
2022-09-04T13:18:47.595Z,28.90
2022-09-04T13:21:33.099Z,27.93
2022-09-04T13:24:43.620Z,27.55
2022-09-04T13:27:39.875Z,26.62
2022-09-04T13:30:19.446Z,25.64
2022-09-04T13:32:58.971Z,25.99
2022-09-04T13:35:45.027Z,25.29
2022-09-04T13:38:42.287Z,25.11
2022-09-04T13:41:52.589Z,29.20
2022-09-04T13:44:53.825Z,31.13
2022-09-04T13:47:32.216Z,33.14
2022-09-04T13:54:23.527Z,32.61
2022-09-04T14:01:00.298Z,34.98
2022-09-04T14:03:41.504Z,36.05
2022-09-04T14:15:03.499Z,34.43
2022-09-04T14:18:02.962Z,33.46
2022-09-04T14:20:52.195Z,33.53
2022-09-04T14:23:54.545Z,34.96
2022-09-04T14:26:37.241Z,34.25
2022-09-04T14:29:17.030Z,33.64
2022-09-04T14:41:09.757Z,32.54
2022-09-04T14:47:49.321Z,34.04
2022-09-04T14:54:37.585Z,33.27
2022-09-04T14:57:37.232Z,34.17
2022-09-04T15:00:09.714Z,34.59
2022-09-04T15:15:21.719Z,36.94
2022-09-04T15:17:58.699Z,38.39
2022-09-04T15:20:31.111Z,37.32
2022-09-04T15:31:40.640Z,36.36
2022-09-04T15:34:24.453Z,35.92
2022-09-04T15:45:14.173Z,35.08
2022-09-04T15:47:58.294Z,35.53
2022-09-04T15:50:32.612Z,35.15
2022-09-04T16:01:34.668Z,34.41
2022-09-04T16:04:37.650Z,34.30
2022-09-04T16:11:30.628Z,34.41
2022-09-04T16:14:30.810Z,35.28
2022-09-04T16:17:18.897Z,34.96
2022-09-04T16:20:05.526Z,35.56
2022-09-04T16:30:06.580Z,38.52
2022-09-04T16:32:35.721Z,38.80
2022-09-04T16:35:09.396Z,39.44
2022-09-04T16:37:41.106Z,38.33
2022-09-04T16:41:01.532Z,39.17
2022-09-04T16:43:31.535Z,40.49
2022-09-04T16:46:30.228Z,39.86
2022-09-04T16:49:14.887Z,40.88
2022-09-04T16:51:57.666Z,41.62
2022-09-04T16:54:43.579Z,42.29
2022-09-04T16:57:16.140Z,43.02
2022-09-04T17:04:17.299Z,43.65
2022-09-04T17:10:49.305Z,45.12
2022-09-04T17:17:30.148Z,45.59
2022-09-04T17:20:07.283Z,46.06
2022-09-04T17:29:09.938Z,46.42
2022-09-04T17:29:34.287Z,46.48
2022-09-04T17:40:35.813Z,47.88
2022-09-04T17:41:32.378Z,48.17
2022-09-04T17:42:37.123Z,48.20
2022-09-04T17:45:29.467Z,48.28
2022-09-04T17:48:18.243Z,49.00
2022-09-04T17:51:06.240Z,49.37
2022-09-04T17:57:04.502Z,49.60
2022-09-04T18:00:06.347Z,49.88
2022-09-04T18:03:04.192Z,50.68
2022-09-04T18:05:47.285Z,50.72
2022-09-04T18:08:32.321Z,50.77
2022-09-04T18:18:25.153Z,51.19
2022-09-04T18:25:16.117Z,51.81
2022-09-04T18:28:12.507Z,51.91
2022-09-04T18:37:11.343Z,52.23
2022-09-04T18:37:24.741Z,51.97
2022-09-04T18:37:44.378Z,52.11
2022-09-04T18:40:12.795Z,52.35
2022-09-04T18:50:27.930Z,52.70
2022-09-04T18:50:30.191Z,52.82
2022-09-04T18:50:53.075Z,53.15
2022-09-04T18:52:10.958Z,53.01
2022-09-04T18:54:56.754Z,53.14
2022-09-04T18:57:46.784Z,53.03
2022-09-04T19:00:37.696Z,52.99
2022-09-04T19:03:30.105Z,53.03
2022-09-04T19:06:09.772Z,52.88
2022-09-04T19:08:51.754Z,53.08
2022-09-04T19:11:31.894Z,52.89
2022-09-04T19:14:15.644Z,53.10
2022-09-04T19:17:34.864Z,52.97
2022-09-04T19:20:15.724Z,53.19
2022-09-04T19:22:54.733Z,53.19
2022-09-04T19:25:47.519Z,53.33
2022-09-04T19:28:47.029Z,53.33
2022-09-04T19:31:40.384Z,53.57
2022-09-04T19:34:37.288Z,53.58
2022-09-04T19:38:35.748Z,53.75
2022-09-04T19:45:53.568Z,53.99
2022-09-04T19:46:15.955Z,53.83
2022-09-04T19:47:28.768Z,53.91
2022-09-04T19:53:32.455Z,53.98
2022-09-04T19:54:02.241Z,53.93
2022-09-04T19:57:32.974Z,54.05
2022-09-04T19:59:56.709Z,54.10
2022-09-04T20:02:52.246Z,54.41
2022-09-04T20:05:27.399Z,54.45
2022-09-04T20:08:13.381Z,54.33
2022-09-04T20:11:01.592Z,54.33
2022-09-04T20:13:53.244Z,54.08
2022-09-04T20:16:32.291Z,54.43
2022-09-04T20:19:35.015Z,54.59
2022-09-04T20:22:09.769Z,54.74
2022-09-04T20:25:02.179Z,54.71
2022-09-04T20:27:48.524Z,54.95
2022-09-04T20:30:24.914Z,55.17
2022-09-04T20:33:17.846Z,55.33
2022-09-04T20:36:03.066Z,55.44
2022-09-04T20:38:56.677Z,55.23
2022-09-04T20:41:54.594Z,55.06
2022-09-04T20:44:45.857Z,55.21
2022-09-04T20:52:44.476Z,55.17
2022-09-04T20:52:58.850Z,55.22
2022-09-04T20:54:00.833Z,55.22
2022-09-04T20:59:23.663Z,55.42
2022-09-04T21:03:14.705Z,55.39
2022-09-04T21:03:22.274Z,55.53
2022-09-04T21:06:18.883Z,55.50
2022-09-04T21:09:05.975Z,55.45
2022-09-04T21:11:51.936Z,55.53
2022-09-04T21:14:45.655Z,55.58
2022-09-04T21:17:57.261Z,55.66
2022-09-04T21:20:30.242Z,55.70
2022-09-04T21:23:30.854Z,55.78
2022-09-04T21:26:04.041Z,55.73
2022-09-04T21:29:11.343Z,55.76
2022-09-04T21:32:28.243Z,55.77
2022-09-04T21:35:13.518Z,55.75
2022-09-04T21:38:16.942Z,55.88
2022-09-04T21:41:05.098Z,55.81
2022-09-04T21:44:06.873Z,55.91
2022-09-04T21:47:01.784Z,56.06
2022-09-04T21:50:09.588Z,56.00
2022-09-04T21:52:55.846Z,55.81
2022-09-04T22:02:25.441Z,56.17
2022-09-04T22:02:36.668Z,56.39
2022-09-04T22:02:54.489Z,56.20
2022-09-04T22:05:48.495Z,56.40
2022-09-04T22:13:33.660Z,56.42
2022-09-04T22:13:42.966Z,56.48
2022-09-04T22:15:13.122Z,56.97
2022-09-04T22:18:04.435Z,56.73
2022-09-04T22:21:31.629Z,56.62
2022-09-04T22:24:28.981Z,56.77
2022-09-04T22:28:08.293Z,56.57
2022-09-04T22:31:03.813Z,56.62
2022-09-04T22:34:16.843Z,56.62
2022-09-04T22:37:29.026Z,56.74
2022-09-04T22:44:53.169Z,56.77
2022-09-04T22:51:48.477Z,57.20
2022-09-04T22:54:42.396Z,57.36
2022-09-04T22:58:15.809Z,57.20
2022-09-04T23:01:30.242Z,57.18
2022-09-04T23:04:18.508Z,57.03
2022-09-04T23:13:50.842Z,57.41
2022-09-04T23:21:10.537Z,57.53
2022-09-04T23:26:43.578Z,57.26
2022-09-04T23:26:49.805Z,57.56
2022-09-04T23:28:28.761Z,57.35
2022-09-04T23:32:07.034Z,57.53
2022-09-04T23:38:55.192Z,57.55
2022-09-04T23:49:31.137Z,57.73
2022-09-04T23:52:13.736Z,57.96
2022-09-04T23:55:39.954Z,57.93
2022-09-04T23:58:49.399Z,57.67
